Time;durP1;ratioP1;P1;durP2;ratioP2;P2;SDS_P1;SDS_P2;PMS_P1;PMS_P2;Temp;Humidity;BMP_temperature;BMP_pressure;BME280_temperature;BME280_humidity;BME280_pressure;Samples;Min_cycle;Max_cycle;Signal;HPM_P1;HPM_P2
2021/03/25 00:00:02;;;;;;;14.60;10.20;;;;;;;8.78;100.00;102064.89;1844293;78;26330;-79
2021/03/25 00:02:31;;;;;;;14.13;9.80;;;;;;;8.81;100.00;102058.89;1844245;77;26722;-79
2021/03/25 00:05:01;;;;;;;15.80;10.10;;;;;;;8.83;100.00;102065.86;1844268;78;26209;-79
2021/03/25 00:07:31;;;;;;;14.53;9.60;;;;;;;8.85;100.00;102065.09;1844536;77;26222;-79
2021/03/25 00:10:09;;;;;;;14.70;8.43;;;;;;;8.73;100.00;102051.77;1844254;77;26251;-79
2021/03/25 00:12:39;;;;;;;11.87;8.60;;;;;;;8.69;100.00;102057.50;1844306;78;26263;-79
2021/03/25 00:15:12;;;;;;;12.60;7.93;;;;;;;8.64;100.00;102050.49;1844360;77;26213;-79
2021/03/25 00:17:42;;;;;;;12.67;8.93;;;;;;;8.54;100.00;102051.64;1844226;78;26309;-79
2021/03/25 00:20:15;;;;;;;14.10;8.30;;;;;;;8.56;100.00;102048.91;1844193;78;26687;-79
2021/03/25 00:22:46;;;;;;;12.47;7.13;;;;;;;8.50;100.00;102048.52;1844319;76;26322;-80
2021/03/25 00:25:19;;;;;;;12.33;7.13;;;;;;;8.49;100.00;102051.52;1844189;78;26212;-79
2021/03/25 00:27:49;;;;;;;8.83;7.23;;;;;;;8.43;100.00;102045.01;1844220;78;26208;-79
2021/03/25 00:30:24;;;;;;;9.83;6.93;;;;;;;8.43;100.00;102037.27;1844287;77;26204;-78
2021/03/25 00:32:54;;;;;;;10.10;6.87;;;;;;;8.47;100.00;102042.05;1844233;77;26204;-77
2021/03/25 00:35:25;;;;;;;11.70;6.90;;;;;;;8.39;100.00;102047.97;1844294;77;26208;-77
2021/03/25 00:37:55;;;;;;;10.73;6.30;;;;;;;8.44;100.00;102038.39;1844258;77;26208;-77
2021/03/25 00:40:25;;;;;;;11.63;6.97;;;;;;;8.44;100.00;102039.78;1844264;78;26212;-77
2021/03/25 00:42:55;;;;;;;12.67;7.63;;;;;;;8.37;100.00;102033.53;1844215;78;26205;-77
2021/03/25 00:45:28;;;;;;;10.40;6.90;;;;;;;8.22;100.00;102036.75;1844248;77;26212;-77
2021/03/25 00:47:59;;;;;;;10.50;6.40;;;;;;;8.22;100.00;102034.52;1844314;78;26208;-78
2021/03/25 00:50:32;;;;;;;10.33;6.40;;;;;;;8.28;100.00;102037.72;1844218;77;26294;-78
2021/03/25 00:53:04;;;;;;;12.00;6.43;;;;;;;8.25;100.00;102034.05;1844379;77;26193;-78
2021/03/25 00:55:34;;;;;;;10.00;6.57;;;;;;;8.22;100.00;102027.59;1844245;77;26244;-77
2021/03/25 00:58:05;;;;;;;10.93;5.90;;;;;;;8.16;100.00;102033.58;1844214;78;26251;-77
2021/03/25 01:00:37;;;;;;;11.60;5.83;;;;;;;8.06;100.00;102030.55;1844182;78;26200;-77
2021/03/25 01:03:09;;;;;;;8.03;4.90;;;;;;;8.01;100.00;102030.96;1844262;77;26323;-77
2021/03/25 01:05:39;;;;;;;9.27;5.63;;;;;;;7.81;100.00;102031.31;1844241;77;26629;-78
2021/03/25 01:08:11;;;;;;;11.97;5.67;;;;;;;7.72;100.00;102032.73;1844210;78;26722;-77
2021/03/25 01:10:44;;;;;;;8.90;5.07;;;;;;;7.85;100.00;102035.28;1844261;77;26210;-77
2021/03/25 01:13:18;;;;;;;11.53;5.10;;;;;;;7.79;100.00;102030.16;1775700;79;26300;-78
2021/03/25 01:15:48;;;;;;;7.63;4.60;;;;;;;7.82;100.00;102030.77;1804827;79;26199;-78
2021/03/25 01:18:19;;;;;;;8.80;4.77;;;;;;;7.68;100.00;102018.55;1803836;79;26223;-79
2021/03/25 01:20:49;;;;;;;6.60;4.20;;;;;;;7.67;100.00;102021.00;1767008;81;26237;-78
2021/03/25 01:23:20;;;;;;;11.40;5.30;;;;;;;7.63;100.00;102028.09;1795902;78;26236;-79
2021/03/25 01:25:51;;;;;;;11.47;5.30;;;;;;;7.58;100.00;102023.80;1767153;79;26271;-79
2021/03/25 01:28:21;;;;;;;8.50;5.23;;;;;;;7.53;100.00;102020.90;1795965;80;26232;-79
2021/03/25 01:30:51;;;;;;;9.10;4.20;;;;;;;7.40;100.00;102013.37;1767138;81;26302;-79
2021/03/25 01:33:23;;;;;;;9.67;4.17;;;;;;;7.44;100.00;102020.11;1796019;79;26233;-79
2021/03/25 01:35:53;;;;;;;8.87;4.80;;;;;;;7.42;100.00;102012.05;1767220;81;26643;-79
2021/03/25 01:38:24;;;;;;;11.10;4.23;;;;;;;7.49;100.00;102010.55;1795946;80;26294;-79
2021/03/25 01:40:56;;;;;;;8.00;4.37;;;;;;;7.44;100.00;102009.90;1766963;81;26275;-79
2021/03/25 01:43:30;;;;;;;8.67;3.63;;;;;;;7.33;100.00;102006.55;1795956;79;26290;-81
2021/03/25 01:46:24;;;;;;;9.27;4.43;;;;;;;7.23;100.00;102012.63;1767020;81;26732;-80
2021/03/25 01:48:56;;;;;;;10.83;4.40;;;;;;;7.16;100.00;102009.66;1796198;79;26248;-82
2021/03/25 01:51:51;;;;;;;9.47;4.23;;;;;;;7.43;100.00;102016.50;1767095;81;26228;-82
2021/03/25 01:54:53;;;;;;;8.27;4.40;;;;;;;7.15;100.00;102019.03;1803684;79;26631;-81
2021/03/25 01:57:46;;;;;;;9.87;4.27;;;;;;;7.17;100.00;102020.50;1803834;79;26302;-81
2021/03/25 02:00:22;;;;;;;8.90;3.90;;;;;;;6.98;100.00;102029.03;1774403;79;26629;-81
2021/03/25 02:03:19;;;;;;;8.17;3.80;;;;;;;6.95;100.00;102023.98;1803815;79;26271;-81
2021/03/25 02:05:53;;;;;;;7.63;3.60;;;;;;;6.97;100.00;102019.09;1763326;80;26288;-81
2021/03/25 02:08:31;;;;;;;7.50;4.60;;;;;;;6.92;100.00;102017.02;1803660;79;26224;-81
2021/03/25 02:11:07;;;;;;;6.43;4.17;;;;;;;6.98;100.00;102018.83;1793402;80;26643;-81
2021/03/25 02:13:42;;;;;;;7.63;3.63;;;;;;;6.74;100.00;102019.80;1795958;80;26216;-81
2021/03/25 02:16:15;;;;;;;8.10;3.97;;;;;;;6.64;100.00;102023.63;1774553;81;26210;-81
2021/03/25 02:18:48;;;;;;;7.30;3.70;;;;;;;6.82;100.00;102025.00;1803881;79;26325;-81
2021/03/25 02:21:45;;;;;;;11.37;3.97;;;;;;;6.87;100.00;102022.39;1795883;79;26718;-82
2021/03/25 02:24:31;;;;;;;8.33;3.47;;;;;;;6.84;100.00;102025.09;1781732;80;26241;-80
2021/03/25 02:27:08;;;;;;;7.70;3.77;;;;;;;6.77;100.00;102026.23;1800575;80;26305;-79
2021/03/25 02:29:52;;;;;;;11.47;4.30;;;;;;;6.66;100.00;102029.78;1800477;80;26236;-79
2021/03/25 02:32:25;;;;;;;8.03;3.60;;;;;;;6.54;100.00;102038.52;1797562;80;26644;-81
2021/03/25 02:34:58;;;;;;;9.13;3.43;;;;;;;6.49;100.00;102041.13;1800524;80;26795;-82
2021/03/25 02:37:31;;;;;;;6.27;3.70;;;;;;;6.55;100.00;102040.19;1800566;80;26306;-79
2021/03/25 02:40:06;;;;;;;8.80;3.73;;;;;;;6.67;100.00;102038.38;1800595;80;26224;-80
2021/03/25 02:42:40;;;;;;;7.10;3.23;;;;;;;6.61;100.00;102051.17;1800630;80;26252;-80
2021/03/25 02:45:14;;;;;;;8.17;3.23;;;;;;;6.61;100.00;102047.56;1800501;80;26647;-80
2021/03/25 02:47:47;;;;;;;8.33;3.20;;;;;;;6.78;100.00;102042.58;1800519;80;26267;-81
2021/03/25 02:50:22;;;;;;;7.70;4.33;;;;;;;6.66;100.00;102035.30;1800569;80;26322;-81
2021/03/25 02:52:55;;;;;;;18.00;3.53;;;;;;;6.56;100.00;102040.50;1800510;80;26235;-80
2021/03/25 02:55:27;;;;;;;7.77;3.13;;;;;;;6.57;100.00;102046.34;1800748;80;26263;-80
2021/03/25 02:58:02;;;;;;;8.20;3.13;;;;;;;6.74;100.00;102047.41;1800486;80;26636;-80
2021/03/25 03:00:36;;;;;;;7.97;3.10;;;;;;;6.64;100.00;102047.94;1800530;80;26236;-80
2021/03/25 03:03:10;;;;;;;8.40;2.80;;;;;;;6.57;100.00;102051.33;1800456;80;26789;-80
2021/03/25 03:05:43;;;;;;;5.27;3.03;;;;;;;6.49;100.00;102045.27;1800565;80;26314;-81
2021/03/25 03:08:16;;;;;;;10.10;3.57;;;;;;;6.43;100.00;102041.49;1800504;80;26220;-81
2021/03/25 03:10:52;;;;;;;8.70;3.43;;;;;;;6.32;100.00;102042.26;1800481;80;26663;-80
2021/03/25 03:13:24;;;;;;;9.07;3.53;;;;;;;6.08;100.00;102038.45;1800630;80;26270;-79
2021/03/25 03:16:00;;;;;;;7.47;3.20;;;;;;;5.87;100.00;102039.70;1800654;80;26223;-81
2021/03/25 03:18:34;;;;;;;6.63;2.90;;;;;;;5.85;100.00;102040.97;1800729;80;26213;-81
2021/03/25 03:21:07;;;;;;;6.00;2.97;;;;;;;5.77;100.00;102035.75;1800725;80;26729;-81
2021/03/25 03:23:38;;;;;;;10.63;3.47;;;;;;;5.70;100.00;102037.69;1800548;80;26790;-82
2021/03/25 03:26:11;;;;;;;6.67;3.10;;;;;;;5.64;100.00;102034.47;1800428;78;26276;-81
2021/03/25 03:28:44;;;;;;;10.37;3.27;;;;;;;5.71;100.00;102031.97;1800259;80;26231;-81
2021/03/25 03:31:18;;;;;;;7.53;3.43;;;;;;;5.61;100.00;102031.61;1800515;80;26326;-81
2021/03/25 03:33:51;;;;;;;7.90;3.10;;;;;;;5.53;100.00;102035.17;1800485;80;26228;-81
2021/03/25 03:36:40;;;;;;;9.20;3.50;;;;;;;5.43;100.00;102033.75;1724607;81;33491;-81
2021/03/25 03:39:13;;;;;;;9.47;3.23;;;;;;;5.47;100.00;102032.27;1724709;83;26331;-82
2021/03/25 03:41:46;;;;;;;6.77;3.33;;;;;;;5.47;100.00;102029.51;1724640;83;26331;-82
2021/03/25 03:44:22;;;;;;;8.97;3.13;;;;;;;5.45;100.00;102034.38;1724760;83;26400;-82
2021/03/25 03:46:54;;;;;;;9.00;3.57;;;;;;;5.44;100.00;102029.92;1724716;83;26691;-80
2021/03/25 03:49:27;;;;;;;11.77;3.57;;;;;;;5.55;100.00;102033.89;1724707;83;26683;-79
2021/03/25 03:52:01;;;;;;;11.37;3.83;;;;;;;5.43;100.00;102022.72;1724158;83;26272;-80
2021/03/25 03:54:31;;;;;;;7.70;3.50;;;;;;;5.49;100.00;102023.75;1724659;83;26323;-80
2021/03/25 03:57:04;;;;;;;7.07;3.70;;;;;;;5.54;100.00;102020.33;1724723;83;26264;-79
2021/03/25 03:59:38;;;;;;;7.43;3.50;;;;;;;5.57;100.00;102023.48;1724556;82;26684;-79
2021/03/25 04:02:13;;;;;;;11.27;4.10;;;;;;;5.52;100.00;102030.19;1724002;82;26288;-79
2021/03/25 04:04:46;;;;;;;9.57;3.90;;;;;;;5.60;100.00;102029.95;1724722;83;26769;-78
2021/03/25 04:07:19;;;;;;;9.83;3.70;;;;;;;5.56;100.00;102031.46;1741591;80;26259;-79
2021/03/25 04:09:52;;;;;;;11.13;3.93;;;;;;;5.49;100.00;102041.13;1800466;80;26655;-79
2021/03/25 04:12:26;;;;;;;16.70;4.37;;;;;;;5.58;100.00;102041.70;1800472;80;26652;-79
2021/03/25 04:15:00;;;;;;;9.50;3.67;;;;;;;5.37;100.00;102044.83;1800573;80;26617;-79
2021/03/25 04:17:32;;;;;;;6.67;3.53;;;;;;;5.38;100.00;102043.77;1800473;80;26224;-79
2021/03/25 04:20:06;;;;;;;10.70;3.83;;;;;;;5.41;100.00;102044.16;1800501;80;26293;-78
2021/03/25 04:22:39;;;;;;;13.20;4.47;;;;;;;5.40;100.00;102044.38;1800440;80;26675;-78
2021/03/25 04:25:13;;;;;;;11.93;3.80;;;;;;;5.41;100.00;102038.66;1802199;76;26713;-79
2021/03/25 04:27:46;;;;;;;8.73;3.63;;;;;;;5.19;100.00;102036.45;1859160;76;26761;-78
2021/03/25 04:30:20;;;;;;;7.67;3.60;;;;;;;5.28;100.00;102037.89;1859172;76;26771;-78
2021/03/25 04:32:51;;;;;;;12.37;4.00;;;;;;;5.22;100.00;102031.90;1859109;76;26212;-81
2021/03/25 04:35:23;;;;;;;6.97;3.63;;;;;;;5.38;100.00;102042.39;1859073;77;26240;-81
2021/03/25 04:37:55;;;;;;;8.73;3.90;;;;;;;5.31;100.00;102034.67;1859229;76;26221;-84
2021/03/25 04:40:28;;;;;;;6.87;3.97;;;;;;;5.38;100.00;102037.72;1859063;76;26221;-81
2021/03/25 04:42:59;;;;;;;8.37;3.80;;;;;;;5.42;100.00;102038.12;1859073;76;26718;-81
2021/03/25 04:45:31;;;;;;;9.07;3.83;;;;;;;5.36;100.00;102046.73;1859121;76;26216;-82
2021/03/25 04:48:04;;;;;;;9.63;3.70;;;;;;;5.18;100.00;102041.11;1859153;77;26188;-82
2021/03/25 04:50:37;;;;;;;7.90;3.53;;;;;;;5.06;100.00;102044.25;1859101;77;26234;-81
2021/03/25 04:53:10;;;;;;;10.57;3.90;;;;;;;4.91;100.00;102045.09;1859116;76;26376;-82
2021/03/25 04:55:40;;;;;;;9.43;3.73;;;;;;;5.03;100.00;102039.20;1858319;75;26289;-82
2021/03/25 04:58:13;;;;;;;13.37;4.63;;;;;;;5.06;100.00;102042.88;1859209;76;26236;-80
2021/03/25 05:00:44;;;;;;;7.07;3.20;;;;;;;5.06;100.00;102038.75;1847143;76;934907;-80
2021/03/25 05:03:18;;;;;;;10.60;3.83;;;;;;;5.12;100.00;102049.42;1859010;76;26252;-79
2021/03/25 05:05:48;;;;;;;9.73;4.33;;;;;;;4.92;100.00;102044.84;1859072;76;26288;-78
2021/03/25 05:08:21;;;;;;;11.93;3.73;;;;;;;4.88;100.00;102050.48;1859228;76;26271;-79
2021/03/25 05:10:55;;;;;;;8.07;4.10;;;;;;;4.91;100.00;102039.58;1859199;76;26291;-79
2021/03/25 05:13:28;;;;;;;10.03;4.57;;;;;;;4.94;100.00;102037.76;1859114;76;26777;-79
2021/03/25 05:16:13;;;;;;;13.37;4.80;;;;;;;4.96;100.00;102037.02;1859028;76;26268;-78
2021/03/25 05:18:47;;;;;;;8.77;4.40;;;;;;;4.93;100.00;102034.16;1859133;77;26318;-78
2021/03/25 05:21:21;;;;;;;11.47;4.13;;;;;;;4.83;100.00;102034.33;1859206;76;26723;-79
2021/03/25 05:23:54;;;;;;;13.77;5.00;;;;;;;4.77;100.00;102036.56;1858698;75;26248;-80
2021/03/25 05:26:27;;;;;;;9.83;5.47;;;;;;;4.62;100.00;102034.06;1855561;76;26224;-79
2021/03/25 05:29:00;;;;;;;10.50;5.37;;;;;;;4.83;100.00;102030.20;1844369;77;26224;-80
2021/03/25 05:31:32;;;;;;;11.63;5.33;;;;;;;4.79;100.00;102025.63;1841304;77;26289;-80
2021/03/25 05:34:06;;;;;;;10.77;4.80;;;;;;;4.95;100.00;102022.94;1838067;77;26713;-80
2021/03/25 05:36:37;;;;;;;11.10;4.47;;;;;;;4.93;100.00;102025.05;1838148;77;26213;-80
2021/03/25 05:39:07;;;;;;;13.67;4.83;;;;;;;5.04;100.00;102032.63;1838114;77;26205;-79
2021/03/25 05:41:41;;;;;;;7.57;4.33;;;;;;;4.81;100.00;102025.42;1838108;77;26713;-79
2021/03/25 05:44:53;;;;;;;10.87;4.40;;;;;;;5.09;100.00;102021.81;1838107;76;26229;-80
2021/03/25 05:47:36;;;;;;;8.90;4.00;;;;;;;4.82;100.00;102021.09;1830876;77;26268;-80
2021/03/25 05:50:13;;;;;;;11.83;4.57;;;;;;;4.98;100.00;102021.11;1838411;78;26266;-81
2021/03/25 05:52:47;;;;;;;10.40;3.97;;;;;;;4.94;100.00;102021.23;1838053;78;26307;-82
2021/03/25 05:55:39;;;;;;;9.23;4.53;;;;;;;4.87;100.00;102030.07;1837853;76;26205;-81
2021/03/25 05:58:14;;;;;;;6.60;3.60;;;;;;;4.68;100.00;102028.23;1837885;77;26663;-81
2021/03/25 06:00:49;;;;;;;9.87;4.03;;;;;;;4.80;100.00;102025.95;1837956;76;26663;-81
2021/03/25 06:03:21;;;;;;;9.20;3.40;;;;;;;4.86;100.00;102024.24;1837847;76;26287;-79
2021/03/25 06:05:54;;;;;;;8.47;3.97;;;;;;;4.87;100.00;102019.91;1838051;77;26290;-79
2021/03/25 06:08:30;;;;;;;7.13;3.87;;;;;;;4.93;100.00;102023.14;1838219;77;26655;-82
2021/03/25 06:11:13;;;;;;;6.70;3.27;;;;;;;4.85;100.00;102029.42;1838087;78;26632;-82
2021/03/25 06:13:52;;;;;;;8.10;3.90;;;;;;;4.87;100.00;102024.56;1837951;76;26270;-80
2021/03/25 06:16:35;;;;;;;9.43;3.70;;;;;;;4.79;100.00;102017.38;1837851;76;26202;-81
2021/03/25 06:19:12;;;;;;;9.20;4.20;;;;;;;4.84;100.00;102024.98;1838062;77;26278;-80
2021/03/25 06:21:59;;;;;;;6.53;3.67;;;;;;;4.89;100.00;102021.05;1837948;76;26659;-81
2021/03/25 06:25:00;;;;;;;7.50;3.40;;;;;;;4.91;100.00;102023.06;1838360;77;26360;-80
2021/03/25 06:27:37;;;;;;;14.17;4.57;;;;;;;5.02;100.00;102023.73;1833639;76;26252;-79
2021/03/25 06:30:11;;;;;;;8.70;3.30;;;;;;;5.07;100.00;102034.09;1838084;77;26634;-79
2021/03/25 06:32:50;;;;;;;6.27;3.33;;;;;;;5.16;100.00;102031.39;1837955;78;26660;-79
2021/03/25 06:35:24;;;;;;;12.20;3.67;;;;;;;5.14;100.00;102027.47;1837998;78;26282;-79
2021/03/25 06:37:59;;;;;;;7.63;3.37;;;;;;;5.24;100.00;102038.02;1837932;76;26303;-80
2021/03/25 06:40:33;;;;;;;10.63;3.83;;;;;;;5.30;100.00;102040.75;1838315;77;26232;-82
2021/03/25 06:43:07;;;;;;;8.30;3.00;;;;;;;5.40;100.00;102038.33;1838364;77;26726;-83
2021/03/25 06:45:40;;;;;;;6.40;3.33;;;;;;;5.27;100.00;102045.83;1837908;76;26216;-80
2021/03/25 06:48:14;;;;;;;6.87;3.10;;;;;;;5.24;100.00;102045.75;1838103;77;26208;-82
2021/03/25 06:50:50;;;;;;;9.33;3.40;;;;;;;5.31;100.00;102053.96;1837920;77;26269;-80
2021/03/25 06:53:26;;;;;;;9.23;3.00;;;;;;;5.41;100.00;102053.80;1838028;77;26245;-79
2021/03/25 06:55:59;;;;;;;9.30;3.20;;;;;;;5.62;100.00;102055.35;1838116;77;26193;-80
2021/03/25 06:58:33;;;;;;;5.77;2.77;;;;;;;5.73;100.00;102059.31;1838015;77;26314;-78
2021/03/25 07:01:06;;;;;;;8.30;3.17;;;;;;;5.85;100.00;102056.98;1837994;77;26205;-79
2021/03/25 07:03:38;;;;;;;8.27;3.27;;;;;;;5.82;100.00;102058.80;1838015;76;26329;-81
2021/03/25 07:06:08;;;;;;;11.67;3.10;;;;;;;5.93;100.00;102055.36;1838134;77;26701;-81
2021/03/25 07:08:39;;;;;;;8.67;3.20;;;;;;;5.89;100.00;102064.30;1838086;77;26198;-78
2021/03/25 07:11:16;;;;;;;9.67;3.70;;;;;;;6.01;100.00;102058.89;1838149;77;26249;-77
2021/03/25 07:13:54;;;;;;;7.57;2.80;;;;;;;6.15;100.00;102070.98;1838167;77;26208;-79
2021/03/25 07:16:20;;;;;;;12.00;3.00;;;;;;;6.32;100.00;102072.62;1837419;76;26201;-77
2021/03/25 07:18:59;;;;;;;9.17;2.93;;;;;;;6.41;100.00;102067.11;1838108;77;26198;-77
2021/03/25 07:21:36;;;;;;;9.27;3.50;;;;;;;6.49;100.00;102053.55;1838127;78;26252;-80
2021/03/25 07:24:12;;;;;;;7.47;2.93;;;;;;;6.50;100.00;102058.00;1838142;78;26628;-78
2021/03/25 07:26:45;;;;;;;6.83;2.40;;;;;;;6.66;100.00;102052.71;1838072;77;26264;-76
2021/03/25 07:29:25;;;;;;;8.60;2.60;;;;;;;6.76;100.00;102057.14;1838004;76;26260;-77
2021/03/25 07:32:03;;;;;;;11.30;2.97;;;;;;;6.94;100.00;102063.73;1838028;78;26201;-78
2021/03/25 07:34:37;;;;;;;5.87;2.77;;;;;;;6.93;100.00;102067.59;1837689;77;26259;-78
2021/03/25 07:37:09;;;;;;;9.77;3.33;;;;;;;7.00;100.00;102070.56;1838091;77;26259;-78
2021/03/25 07:39:44;;;;;;;11.17;3.20;;;;;;;6.97;100.00;102061.91;1838064;77;26319;-78
2021/03/25 07:42:13;;;;;;;6.93;3.40;;;;;;;6.95;100.00;102057.98;1838066;77;26196;-78
2021/03/25 07:44:44;;;;;;;11.57;3.33;;;;;;;6.89;100.00;102063.60;1838043;77;26306;-78
2021/03/25 07:47:30;;;;;;;5.77;3.03;;;;;;;6.98;100.00;102060.80;1837978;78;26209;-77
2021/03/25 07:50:24;;;;;;;8.43;3.53;;;;;;;6.89;100.00;102063.60;1837913;76;26209;-78
2021/03/25 07:52:54;;;;;;;8.17;3.40;;;;;;;7.02;100.00;102057.34;1838160;77;26193;-76
2021/03/25 07:55:28;;;;;;;11.57;3.33;;;;;;;7.34;100.00;102049.70;1838056;77;26303;-76
2021/03/25 07:57:59;;;;;;;8.80;3.10;;;;;;;7.58;100.00;102042.31;1838175;77;26751;-76
2021/03/25 08:00:33;;;;;;;9.40;3.30;;;;;;;7.82;100.00;102042.69;1837883;76;26314;-77
2021/03/25 08:03:15;;;;;;;5.17;2.50;;;;;;;7.81;100.00;102040.98;1837990;77;26240;-76
2021/03/25 08:05:55;;;;;;;7.97;3.13;;;;;;;7.91;100.00;102037.65;1838076;78;26221;-76
2021/03/25 08:08:29;;;;;;;8.33;3.07;;;;;;;8.13;100.00;102041.48;1838147;78;26274;-78
2021/03/25 08:11:15;;;;;;;7.60;2.90;;;;;;;8.35;100.00;102039.84;1838016;78;26301;-78
2021/03/25 08:13:52;;;;;;;9.53;2.67;;;;;;;8.70;100.00;102041.19;1838150;77;26200;-79
2021/03/25 08:16:23;;;;;;;6.90;3.17;;;;;;;8.67;100.00;102035.61;1838115;78;26197;-78
2021/03/25 08:19:23;;;;;;;4.27;2.60;;;;;;;8.62;100.00;102040.19;1838027;77;26214;-78
2021/03/25 08:22:01;;;;;;;5.77;2.13;;;;;;;8.80;100.00;102037.27;1837713;76;26656;-78
2021/03/25 08:25:28;;;;;;;6.97;2.47;;;;;;;8.79;100.00;102036.11;1838068;76;26209;-76
2021/03/25 08:28:10;;;;;;;8.33;2.47;;;;;;;8.88;100.00;102035.50;1837976;76;26341;-77
2021/03/25 08:31:00;;;;;;;6.60;2.57;;;;;;;8.94;100.00;102034.50;1837924;78;26248;-78
2021/03/25 08:34:06;;;;;;;5.67;2.57;;;;;;;8.96;100.00;102035.64;1838398;77;26326;-77
2021/03/25 08:36:41;;;;;;;6.23;2.10;;;;;;;8.94;100.00;102015.67;1823870;76;26266;-75
2021/03/25 08:39:26;;;;;;;7.37;2.50;;;;;;;9.09;100.00;102029.82;1837887;76;26225;-75
2021/03/25 08:41:57;;;;;;;8.83;2.47;;;;;;;9.24;100.00;102041.77;1837497;76;26267;-77
2021/03/25 08:44:32;;;;;;;6.20;2.47;;;;;;;9.37;100.00;102045.63;1838111;77;26197;-75
2021/03/25 08:47:07;;;;;;;9.17;2.43;;;;;;;9.58;100.00;102047.70;1838056;77;26714;-77
2021/03/25 08:49:40;;;;;;;7.47;2.40;;;;;;;9.64;100.00;102052.77;1838189;77;26691;-77
2021/03/25 08:52:14;;;;;;;5.20;2.27;;;;;;;9.50;100.00;102052.23;1837349;76;26724;-77
2021/03/25 08:54:48;;;;;;;6.63;2.07;;;;;;;9.54;100.00;102054.27;1838174;77;26200;-77
2021/03/25 08:57:21;;;;;;;6.10;2.40;;;;;;;9.58;100.00;102049.89;1838105;77;26271;-77
2021/03/25 08:59:59;;;;;;;6.83;1.93;;;;;;;9.60;100.00;102043.56;1838087;77;26194;-77
2021/03/25 09:02:33;;;;;;;7.37;2.30;;;;;;;9.88;100.00;102042.66;1837956;76;26695;-77
2021/03/25 09:05:08;;;;;;;6.23;2.63;;;;;;;9.93;100.00;102043.29;1838086;78;26200;-77
2021/03/25 09:07:40;;;;;;;7.40;2.53;;;;;;;10.01;100.00;102038.16;1838177;77;26198;-77
2021/03/25 09:10:13;;;;;;;5.70;2.30;;;;;;;10.09;100.00;102035.53;1838053;77;26287;-78
2021/03/25 09:12:43;;;;;;;9.23;2.40;;;;;;;10.27;100.00;102042.80;1837989;77;26216;-78
2021/03/25 09:15:16;;;;;;;4.20;2.63;;;;;;;10.57;100.00;102030.71;1838191;77;26206;-78
2021/03/25 09:17:51;;;;;;;8.03;2.43;;;;;;;10.83;100.00;102031.35;1838194;77;26754;-78
2021/03/25 09:20:27;;;;;;;10.53;2.50;;;;;;;10.79;100.00;102026.56;1838156;77;26236;-78
2021/03/25 09:23:00;;;;;;;5.37;2.17;;;;;;;10.88;100.00;102031.42;1838055;77;26197;-78
2021/03/25 09:25:39;;;;;;;6.27;2.43;;;;;;;10.98;100.00;102014.03;1838080;77;26225;-78
2021/03/25 09:28:19;;;;;;;6.93;1.97;;;;;;;11.05;100.00;102017.99;1838067;77;26206;-78
2021/03/25 09:31:12;;;;;;;5.80;2.00;;;;;;;11.00;100.00;102022.09;1837957;76;26684;-78
2021/03/25 09:33:49;;;;;;;6.07;2.33;;;;;;;11.25;100.00;102022.42;1838107;78;26278;-77
2021/03/25 09:36:46;;;;;;;6.40;2.60;;;;;;;11.29;100.00;102015.23;1838187;77;26363;-76
2021/03/25 09:39:25;;;;;;;5.90;2.20;;;;;;;11.37;100.00;102014.21;1838113;77;26282;-77
2021/03/25 09:41:57;;;;;;;5.33;2.60;;;;;;;11.37;100.00;102000.30;1838036;77;26197;-77
2021/03/25 09:44:43;;;;;;;7.13;2.90;;;;;;;11.32;100.00;102004.42;1838158;77;26287;-76
2021/03/25 09:47:36;;;;;;;6.10;2.67;;;;;;;11.34;100.00;101998.02;1838185;78;26616;-77
2021/03/25 09:50:22;;;;;;;7.83;2.13;;;;;;;11.49;100.00;101996.50;1838123;78;26189;-76
2021/03/25 09:53:16;;;;;;;10.17;2.40;;;;;;;11.55;100.00;101996.27;1838104;77;26283;-77
2021/03/25 09:56:21;;;;;;;5.83;2.40;;;;;;;11.61;100.00;101993.00;1838035;77;26217;-77
2021/03/25 09:58:51;;;;;;;7.27;2.23;;;;;;;11.64;100.00;101987.73;1838159;77;26762;-77
2021/03/25 10:01:52;;;;;;;7.43;2.50;;;;;;;11.72;100.00;101983.69;1838037;78;26216;-77
2021/03/25 10:04:29;;;;;;;10.07;2.90;;;;;;;11.74;100.00;101990.66;1837923;77;26204;-76
2021/03/25 10:07:32;;;;;;;11.07;3.43;;;;;;;11.80;100.00;101979.86;1838160;78;26279;-77
2021/03/25 10:10:21;;;;;;;8.20;2.47;;;;;;;11.86;100.00;101985.73;1838101;77;26282;-77
2021/03/25 10:13:13;;;;;;;4.90;1.93;;;;;;;11.84;100.00;101992.14;1837978;77;26298;-77
2021/03/25 10:16:12;;;;;;;8.77;2.70;;;;;;;11.90;100.00;101980.47;1837965;77;26260;-77
2021/03/25 10:19:01;;;;;;;10.73;2.83;;;;;;;12.00;100.00;101981.11;1837611;76;26212;-77
2021/03/25 10:22:10;;;;;;;7.00;2.20;;;;;;;11.95;100.00;101976.34;1838048;77;26260;-76
2021/03/25 10:24:44;;;;;;;5.80;2.33;;;;;;;11.90;100.00;101980.47;1837530;76;26189;-76
2021/03/25 10:27:26;;;;;;;7.27;2.20;;;;;;;12.12;100.00;101967.82;1837875;78;26210;-76
2021/03/25 10:29:56;;;;;;;5.67;2.03;;;;;;;12.27;100.00;101957.64;1839815;76;26761;-76
2021/03/25 10:32:30;;;;;;;7.07;2.00;;;;;;;12.42;100.00;101944.88;1845073;77;26208;-75
2021/03/25 10:35:02;;;;;;;6.23;2.10;;;;;;;12.46;100.00;101947.41;1844244;77;26284;-76
2021/03/25 10:37:40;;;;;;;8.20;2.40;;;;;;;12.49;100.00;101947.72;1841617;78;26204;-76
2021/03/25 10:40:17;;;;;;;9.43;2.60;;;;;;;12.48;100.00;101943.80;1838079;77;26198;-76
2021/03/25 10:42:56;;;;;;;9.30;3.43;;;;;;;12.58;100.00;101947.45;1838157;77;26192;-76
2021/03/25 10:45:35;;;;;;;5.47;2.27;;;;;;;12.52;100.00;101950.51;1838217;77;26279;-77
2021/03/25 10:48:09;;;;;;;10.60;2.60;;;;;;;12.52;100.00;101946.33;1838117;78;26201;-77
2021/03/25 10:50:43;;;;;;;5.03;2.47;;;;;;;12.54;100.00;101946.88;1837836;76;26737;-77
2021/03/25 10:53:16;;;;;;;6.27;2.80;;;;;;;12.66;100.00;101942.75;1837877;77;26300;-76
2021/03/25 10:55:51;;;;;;;6.00;2.90;;;;;;;12.79;100.00;101935.27;1838090;77;26310;-77
2021/03/25 10:58:26;;;;;;;10.03;3.50;;;;;;;12.70;100.00;101934.70;1838193;77;26263;-77
2021/03/25 11:01:08;;;;;;;5.80;2.67;;;;;;;12.68;100.00;101936.36;1838202;77;26205;-77
2021/03/25 11:03:40;;;;;;;6.37;3.27;;;;;;;12.63;100.00;101939.67;1838000;78;26671;-76
2021/03/25 11:06:19;;;;;;;6.27;2.60;;;;;;;12.72;100.00;101926.34;1838065;77;26279;-77
2021/03/25 11:08:52;;;;;;;7.03;2.57;;;;;;;12.75;100.00;101930.52;1838122;77;26640;-77
2021/03/25 11:11:24;;;;;;;4.83;2.47;;;;;;;12.77;100.00;101926.36;1838136;77;26706;-77
2021/03/25 11:14:02;;;;;;;10.47;3.23;;;;;;;12.99;100.00;101928.09;1838000;78;26649;-76
2021/03/25 11:16:34;;;;;;;5.63;2.40;;;;;;;12.91;100.00;101918.33;1838091;77;26237;-76
2021/03/25 11:19:07;;;;;;;7.27;2.67;;;;;;;12.78;100.00;101916.05;1838142;77;26217;-76
2021/03/25 11:21:40;;;;;;;7.00;2.60;;;;;;;12.71;100.00;101912.11;1838097;78;26664;-77
2021/03/25 11:24:16;;;;;;;5.13;2.00;;;;;;;13.19;100.00;101908.63;1838154;77;26282;-77
2021/03/25 11:26:46;;;;;;;5.10;1.80;;;;;;;13.40;100.00;101898.32;1838009;77;26305;-76
2021/03/25 11:29:20;;;;;;;7.47;2.27;;;;;;;13.38;100.00;101888.85;1838081;77;26298;-77
2021/03/25 11:31:50;;;;;;;7.00;2.53;;;;;;;13.20;100.00;101891.63;1837640;76;26295;-76
2021/03/25 11:34:27;;;;;;;7.73;2.20;;;;;;;12.97;100.00;101891.27;1838088;77;26217;-77
2021/03/25 11:36:59;;;;;;;6.13;2.50;;;;;;;12.86;100.00;101897.39;1837985;78;26279;-77
2021/03/25 11:39:31;;;;;;;5.50;1.80;;;;;;;13.34;100.00;101888.29;1837915;78;26387;-76
2021/03/25 11:42:03;;;;;;;4.47;1.90;;;;;;;13.63;100.00;101890.80;1838133;77;26201;-77
2021/03/25 11:44:46;;;;;;;4.67;1.80;;;;;;;13.56;100.00;101881.88;1838057;78;26311;-77
2021/03/25 11:47:36;;;;;;;4.73;1.70;;;;;;;13.49;100.00;101882.14;1838053;78;26294;-76
2021/03/25 11:50:12;;;;;;;7.33;1.93;;;;;;;13.61;100.00;101895.25;1838058;77;26201;-76
2021/03/25 11:53:02;;;;;;;9.60;2.00;;;;;;;13.45;100.00;101878.79;1837062;76;26209;-76
2021/03/25 11:55:37;;;;;;;5.63;1.77;;;;;;;13.47;100.00;101879.36;1837751;76;26558;-76
2021/03/25 11:58:10;;;;;;;5.87;1.57;;;;;;;13.42;100.00;101877.96;1838088;77;26201;-77
2021/03/25 12:00:53;;;;;;;4.07;1.70;;;;;;;13.39;100.00;101876.55;1838129;77;26360;-77
2021/03/25 12:03:29;;;;;;;4.37;1.77;;;;;;;13.47;100.00;101873.78;1838069;77;26318;-77